Time;durP1;ratioP1;P1;durP2;ratioP2;P2;SDS_P1;SDS_P2;PMS_P1;PMS_P2;Temp;Humidity;BMP_temperature;BMP_pressure;BME280_temperature;BME280_humidity;BME280_pressure;Samples;Min_cycle;Max_cycle;Signal;HPM_P1;HPM_P2
2021/07/23 00:01:33;;;;;;;;;;;;;;;15.14;73.30;102074.31;5052249;28;19928;-51
2021/07/23 00:04:00;;;;;;;;;;;;;;;15.18;72.91;102073.16;5052830;28;20019;-51
2021/07/23 00:06:31;;;;;;;;;;;;;;;15.18;72.98;102065.22;5052794;28;19925;-48
2021/07/23 00:08:57;;;;;;;;;;;;;;;15.13;73.28;102066.47;5052713;28;19927;-51
2021/07/23 00:11:24;;;;;;;;;;;;;;;15.04;73.85;102065.28;5050627;28;20402;-49
2021/07/23 00:13:51;;;;;;;;;;;;;;;15.00;73.59;102067.25;5049923;28;20418;-50
2021/07/23 00:16:18;;;;;;;;;;;;;;;15.09;73.20;102057.03;5050293;28;19924;-51
2021/07/23 00:18:44;;;;;;;;;;;;;;;15.07;73.23;102062.41;5049968;28;20384;-51
2021/07/23 00:21:11;;;;;;;;;;;;;;;15.09;73.08;102070.25;5050969;28;19920;-51
2021/07/23 00:23:38;;;;;;;;;;;;;;;15.02;73.42;102065.38;5052618;28;19927;-52
2021/07/23 00:26:11;;;;;;;;;;;;;;;14.95;73.61;102064.06;5052418;28;19922;-52
2021/07/23 00:28:37;;;;;;;;;;;;;;;14.96;73.37;102070.22;5052666;28;19921;-52
2021/07/23 00:31:04;;;;;;;;;;;;;;;15.02;73.25;102065.38;5052694;28;20414;-51
2021/07/23 00:33:31;;;;;;;;;;;;;;;14.95;73.51;102063.22;5052610;28;19925;-49
2021/07/23 00:35:58;;;;;;;;;;;;;;;15.01;73.49;102061.03;5052470;28;20390;-51
2021/07/23 00:38:24;;;;;;;;;;;;;;;14.97;73.64;102059.53;5051408;28;19920;-52
2021/07/23 00:40:51;;;;;;;;;;;;;;;14.88;73.70;102060.09;5049096;28;19929;-49
2021/07/23 00:43:17;;;;;;;;;;;;;;;14.86;74.13;102054.03;5049678;28;19921;-52
2021/07/23 00:45:44;;;;;;;;;;;;;;;14.75;74.66;102052.13;5049669;28;19943;-51
2021/07/23 00:48:13;;;;;;;;;;;;;;;14.85;73.79;102047.06;5048270;28;20367;-52
2021/07/23 00:50:40;;;;;;;;;;;;;;;14.85;73.96;102042.63;5049873;28;19985;-52
2021/07/23 00:53:06;;;;;;;;;;;;;;;14.71;74.88;102045.28;5049475;28;20310;-52
2021/07/23 00:55:33;;;;;;;;;;;;;;;14.80;74.52;102041.22;5049646;28;19925;-50
2021/07/23 00:58:00;;;;;;;;;;;;;;;14.78;74.18;102046.63;5051616;28;19967;-52
2021/07/23 01:00:26;;;;;;;;;;;;;;;14.84;74.29;102048.84;5050878;28;19929;-51
2021/07/23 01:02:53;;;;;;;;;;;;;;;14.79;74.16;102045.66;5047493;28;19970;-53
2021/07/23 01:05:20;;;;;;;;;;;;;;;14.84;74.44;102046.19;5033228;28;19959;-53
2021/07/23 01:07:47;;;;;;;;;;;;;;;14.80;74.47;102039.41;5052219;28;19920;-52
2021/07/23 01:10:14;;;;;;;;;;;;;;;14.68;74.86;102046.34;5052277;28;20398;-50
2021/07/23 01:12:41;;;;;;;;;;;;;;;14.72;74.95;102040.84;5052144;28;19921;-50
2021/07/23 01:15:08;;;;;;;;;;;;;;;14.78;74.77;102035.16;5050853;28;19921;-52
2021/07/23 01:17:34;;;;;;;;;;;;;;;14.64;75.15;102049.28;5052007;28;20342;-52
2021/07/23 01:20:03;;;;;;;;;;;;;;;14.66;74.76;102037.66;5050905;28;20019;-52
2021/07/23 01:22:30;;;;;;;;;;;;;;;14.74;74.64;102038.94;5055284;28;19928;-49
2021/07/23 01:24:57;;;;;;;;;;;;;;;14.68;75.02;102043.72;5055579;28;19944;-50
2021/07/23 01:27:27;;;;;;;;;;;;;;;14.66;74.90;102042.09;5055675;28;19925;-52
2021/07/23 01:30:01;;;;;;;;;;;;;;;14.63;74.97;102037.84;5055785;28;20379;-50
2021/07/23 01:32:28;;;;;;;;;;;;;;;14.58;75.52;102042.53;5052771;28;19924;-53
2021/07/23 01:34:54;;;;;;;;;;;;;;;14.62;75.07;102052.00;5052623;28;19921;-52
2021/07/23 01:37:21;;;;;;;;;;;;;;;14.64;75.15;102041.34;5054661;28;19921;-50
2021/07/23 01:39:48;;;;;;;;;;;;;;;14.61;74.96;102045.00;5055467;28;20399;-51
2021/07/23 01:42:14;;;;;;;;;;;;;;;14.50;76.00;102039.53;5055347;28;20405;-50
2021/07/23 01:44:41;;;;;;;;;;;;;;;14.37;76.29;102040.31;5055515;28;20429;-50
2021/07/23 01:47:08;;;;;;;;;;;;;;;14.38;76.58;102046.44;5051945;28;19970;-49
2021/07/23 01:49:34;;;;;;;;;;;;;;;14.41;76.49;102042.75;5052287;28;19935;-51
2021/07/23 01:52:02;;;;;;;;;;;;;;;14.36;76.82;102035.09;5054378;28;20276;-51
2021/07/23 01:54:29;;;;;;;;;;;;;;;14.31;76.98;102040.66;5054850;28;20111;-51
2021/07/23 01:56:55;;;;;;;;;;;;;;;14.29;77.25;102039.94;5051779;28;19978;-52
2021/07/23 01:59:22;;;;;;;;;;;;;;;14.33;77.32;102037.94;5052419;28;19921;-50
2021/07/23 02:01:49;;;;;;;;;;;;;;;14.34;76.95;102035.22;5054875;28;20288;-49
2021/07/23 02:04:16;;;;;;;;;;;;;;;14.43;76.96;102041.72;5052486;28;19978;-50
2021/07/23 02:06:42;;;;;;;;;;;;;;;14.44;76.74;102039.91;5050881;28;20322;-50
2021/07/23 02:09:09;;;;;;;;;;;;;;;14.31;77.09;102032.72;5054395;28;20116;-50
2021/07/23 02:11:35;;;;;;;;;;;;;;;14.30;76.90;102033.69;5055046;28;19920;-51
2021/07/23 02:14:06;;;;;;;;;;;;;;;14.29;76.86;102029.34;5054857;28;20387;-50
2021/07/23 02:16:34;;;;;;;;;;;;;;;14.30;76.81;102031.06;5050946;28;19960;-51
2021/07/23 02:19:00;;;;;;;;;;;;;;;14.23;77.31;102023.59;5051603;28;20275;-51
2021/07/23 02:21:27;;;;;;;;;;;;;;;14.14;77.51;102025.00;5054402;28;19921;-52
2021/07/23 02:23:54;;;;;;;;;;;;;;;14.12;77.42;102026.88;5053417;28;19925;-52
2021/07/23 02:26:21;;;;;;;;;;;;;;;14.22;76.84;102027.16;5052078;28;19970;-53
2021/07/23 02:28:48;;;;;;;;;;;;;;;14.19;76.72;102023.78;5052202;28;20500;-47
2021/07/23 02:31:18;;;;;;;;;;;;;;;14.06;77.40;102025.47;5052577;28;19921;-50
2021/07/23 02:33:45;;;;;;;;;;;;;;;14.11;77.09;102022.53;5053312;28;20275;-51
2021/07/23 02:36:12;;;;;;;;;;;;;;;14.11;77.11;102025.19;5054195;28;19928;-49
2021/07/23 02:38:38;;;;;;;;;;;;;;;14.01;77.54;102025.72;5054243;28;19920;-52
2021/07/23 02:41:05;;;;;;;;;;;;;;;14.02;77.56;102024.78;5053120;28;19952;-49
2021/07/23 02:43:32;;;;;;;;;;;;;;;14.06;77.08;102017.53;5054305;28;19966;-49
2021/07/23 02:45:58;;;;;;;;;;;;;;;14.01;77.39;102022.25;5052763;28;20318;-51
2021/07/23 02:48:25;;;;;;;;;;;;;;;13.92;77.80;102014.88;5053033;28;20401;-52
2021/07/23 02:50:52;;;;;;;;;;;;;;;13.95;77.62;102020.84;5054338;28;20012;-48
2021/07/23 02:53:18;;;;;;;;;;;;;;;13.91;77.96;102021.97;5053247;28;19966;-52
2021/07/23 02:55:49;;;;;;;;;;;;;;;13.82;78.17;102019.88;5051009;28;19925;-51
2021/07/23 02:58:15;;;;;;;;;;;;;;;13.98;77.84;102019.81;5052827;28;19921;-51
2021/07/23 03:00:42;;;;;;;;;;;;;;;13.88;78.10;102019.50;5051214;28;19947;-51
2021/07/23 03:03:09;;;;;;;;;;;;;;;13.92;77.96;102020.16;5049721;28;19970;-50
2021/07/23 03:05:35;;;;;;;;;;;;;;;13.93;78.26;102020.06;5054249;28;19921;-50
2021/07/23 03:08:02;;;;;;;;;;;;;;;13.89;78.54;102018.56;5052489;28;20542;-50
2021/07/23 03:10:29;;;;;;;;;;;;;;;13.95;77.85;102017.34;5052559;28;19982;-51
2021/07/23 03:12:55;;;;;;;;;;;;;;;13.98;77.95;102020.63;5053657;28;19927;-52
2021/07/23 03:15:22;;;;;;;;;;;;;;;13.86;78.33;102013.44;5052316;28;19971;-49
2021/07/23 03:17:49;;;;;;;;;;;;;;;13.80;78.66;102008.56;5052376;28;20346;-50
2021/07/23 03:20:15;;;;;;;;;;;;;;;13.82;78.61;102009.28;5051312;28;20379;-51
2021/07/23 03:22:42;;;;;;;;;;;;;;;13.80;78.79;102001.47;5051978;28;20379;-52
2021/07/23 03:25:10;;;;;;;;;;;;;;;13.94;78.10;102005.91;5052185;28;19921;-48
2021/07/23 03:27:37;;;;;;;;;;;;;;;13.86;78.41;101997.59;5052315;28;19924;-51
2021/07/23 03:30:05;;;;;;;;;;;;;;;13.77;78.71;102000.78;5053499;28;19920;-50
2021/07/23 03:32:31;;;;;;;;;;;;;;;13.78;78.63;101991.91;5053237;28;20027;-52
2021/07/23 03:34:58;;;;;;;;;;;;;;;13.71;78.76;101995.88;5053172;28;19974;-50
2021/07/23 03:37:25;;;;;;;;;;;;;;;13.68;78.92;101992.47;5053129;28;19920;-53
2021/07/23 03:39:51;;;;;;;;;;;;;;;13.67;78.95;101998.72;5053083;28;19921;-51
2021/07/23 03:42:18;;;;;;;;;;;;;;;13.63;79.20;101991.91;5053337;28;19925;-49
2021/07/23 03:44:46;;;;;;;;;;;;;;;13.65;79.31;101989.19;5052791;28;20398;-49
2021/07/23 03:47:15;;;;;;;;;;;;;;;13.73;78.85;101988.69;5052706;28;19921;-47
2021/07/23 03:49:43;;;;;;;;;;;;;;;13.82;78.65;101982.84;5053228;28;19971;-49
2021/07/23 03:52:09;;;;;;;;;;;;;;;13.75;79.00;101992.13;5051563;28;19925;-56
2021/07/23 03:54:36;;;;;;;;;;;;;;;13.66;79.22;101989.09;5052969;28;20387;-51
2021/07/23 03:57:04;;;;;;;;;;;;;;;13.71;79.24;101986.16;5052929;28;19920;-49
2021/07/23 03:59:32;;;;;;;;;;;;;;;13.60;79.39;101978.88;5049156;28;19990;-51
2021/07/23 04:01:58;;;;;;;;;;;;;;;13.63;79.45;101978.69;5048215;28;20414;-51
2021/07/23 04:04:25;;;;;;;;;;;;;;;13.70;79.79;101987.09;5051719;28;19967;-49
2021/07/23 04:06:59;;;;;;;;;;;;;;;13.73;79.62;101983.41;5052916;28;19921;-51
2021/07/23 04:09:26;;;;;;;;;;;;;;;13.67;79.78;101984.63;5052747;28;19921;-50
2021/07/23 04:11:53;;;;;;;;;;;;;;;13.66;79.69;101989.09;5052657;28;19924;-49
2021/07/23 04:14:20;;;;;;;;;;;;;;;13.63;80.04;101978.69;5052450;28;19927;-51
2021/07/23 04:16:47;;;;;;;;;;;;;;;13.67;79.92;101985.50;5052549;28;20019;-51
2021/07/23 04:19:14;;;;;;;;;;;;;;;13.64;79.94;101976.91;5052622;28;19920;-53
2021/07/23 04:21:41;;;;;;;;;;;;;;;13.61;80.06;101980.56;5052490;28;19978;-53
2021/07/23 04:24:07;;;;;;;;;;;;;;;13.59;80.13;101976.31;5052518;28;20363;-53
2021/07/23 04:26:34;;;;;;;;;;;;;;;13.61;79.95;101977.94;5052465;28;19970;-51
2021/07/23 04:29:01;;;;;;;;;;;;;;;13.64;80.01;101974.25;5052556;28;19928;-48
2021/07/23 04:31:28;;;;;;;;;;;;;;;13.71;79.84;101980.03;5034799;28;19928;-52
2021/07/23 04:33:58;;;;;;;;;;;;;;;13.65;80.35;101979.44;5052360;28;19920;-49
2021/07/23 04:36:25;;;;;;;;;;;;;;;13.64;80.30;101974.25;5052407;28;20376;-50
2021/07/23 04:38:51;;;;;;;;;;;;;;;13.72;80.42;101987.03;5052183;28;19928;-47
2021/07/23 04:41:18;;;;;;;;;;;;;;;13.79;79.97;101977.75;5052921;28;19920;-52
2021/07/23 04:43:45;;;;;;;;;;;;;;;13.79;80.21;101983.88;5052288;28;20380;-50
2021/07/23 04:46:11;;;;;;;;;;;;;;;13.87;80.17;101975.50;5051662;28;19935;-49
2021/07/23 04:48:38;;;;;;;;;;;;;;;13.93;80.01;101987.50;5052043;28;20012;-48
2021/07/23 04:51:05;;;;;;;;;;;;;;;13.83;80.16;101980.13;5052445;28;20277;-54
2021/07/23 04:53:32;;;;;;;;;;;;;;;13.81;80.14;101983.78;5052204;28;19924;-50
2021/07/23 04:56:01;;;;;;;;;;;;;;;13.84;80.10;101991.56;5051606;28;19920;-50
2021/07/23 04:58:27;;;;;;;;;;;;;;;13.90;80.18;101985.88;5056132;28;19934;-52
2021/07/23 05:00:54;;;;;;;;;;;;;;;13.86;80.27;101982.59;5056412;28;19971;-48
2021/07/23 05:03:24;;;;;;;;;;;;;;;13.98;80.03;101988.91;5053456;28;19924;-51
2021/07/23 05:05:51;;;;;;;;;;;;;;;13.97;80.04;101987.19;5052245;28;19983;-51
2021/07/23 05:08:18;;;;;;;;;;;;;;;13.98;80.03;101985.41;5038230;28;19928;-51
2021/07/23 05:10:44;;;;;;;;;;;;;;;14.03;80.22;101980.72;5055911;28;19920;-51
2021/07/23 05:13:11;;;;;;;;;;;;;;;14.08;80.25;101989.19;5055837;28;19927;-52
2021/07/23 05:15:39;;;;;;;;;;;;;;;14.07;79.98;101987.50;5054990;28;20333;-53
2021/07/23 05:18:06;;;;;;;;;;;;;;;14.15;80.14;101985.22;5052148;28;20210;-49
2021/07/23 05:20:33;;;;;;;;;;;;;;;14.14;79.54;101978.22;5053567;28;20379;-51
2021/07/23 05:23:01;;;;;;;;;;;;;;;14.20;79.55;101977.84;5055471;28;20004;-50
2021/07/23 05:25:27;;;;;;;;;;;;;;;14.24;79.31;101969.72;5055758;28;19967;-49
2021/07/23 05:27:54;;;;;;;;;;;;;;;14.31;79.31;101966.56;5055403;28;19927;-50
2021/07/23 05:30:21;;;;;;;;;;;;;;;14.37;79.19;101970.66;5054636;28;19920;-50
2021/07/23 05:32:48;;;;;;;;;;;;;;;14.42;78.67;101968.53;5052745;28;20318;-51
2021/07/23 05:35:14;;;;;;;;;;;;;;;14.46;78.95;101966.56;5053253;28;20401;-52
2021/07/23 05:37:41;;;;;;;;;;;;;;;14.52;78.69;101971.47;5055542;28;20386;-49
2021/07/23 05:40:08;;;;;;;;;;;;;;;14.60;78.41;101961.25;5053241;28;20003;-52
2021/07/23 05:42:35;;;;;;;;;;;;;;;14.67;77.98;101965.22;5052328;28;19966;-51
2021/07/23 05:45:01;;;;;;;;;;;;;;;14.74;78.22;101960.38;5052918;28;19939;-49
2021/07/23 05:47:28;;;;;;;;;;;;;;;14.82;77.88;101954.56;5055200;28;19971;-51
2021/07/23 05:49:55;;;;;;;;;;;;;;;14.90;77.63;101954.91;5055228;28;19924;-53
2021/07/23 05:52:22;;;;;;;;;;;;;;;15.00;78.20;101958.66;5055307;28;19921;-52
2021/07/23 05:54:48;;;;;;;;;;;;;;;15.06;77.94;101964.50;5055225;28;19921;-53
2021/07/23 05:57:16;;;;;;;;;;;;;;;15.12;77.64;101962.28;5053757;28;19921;-52
2021/07/23 05:59:46;;;;;;;;;;;;;;;15.23;77.10;101960.72;5055238;28;19921;-54
2021/07/23 06:02:13;;;;;;;;;;;;;;;15.36;77.04;101962.41;5055245;28;19921;-53
2021/07/23 06:04:40;;;;;;;;;;;;;;;15.41;76.05;101963.94;5055248;28;20324;-55
2021/07/23 06:07:07;;;;;;;;;;;;;;;15.49;75.46;101958.97;5054765;28;20018;-53
2021/07/23 06:09:34;;;;;;;;;;;;;;;15.62;75.66;101961.63;5053733;28;19944;-52
2021/07/23 06:12:01;;;;;;;;;;;;;;;15.68;75.60;101956.72;5051047;28;19931;-53
2021/07/23 06:14:27;;;;;;;;;;;;;;;15.78;73.96;101966.72;5052808;28;19971;-53
2021/07/23 06:16:55;;;;;;;;;;;;;;;15.94;74.69;101958.53;5053714;28;19921;-53
2021/07/23 06:19:22;;;;;;;;;;;;;;;15.98;73.79;101968.84;5054967;28;20281;-53
2021/07/23 06:21:49;;;;;;;;;;;;;;;16.19;73.46;101965.63;5053730;28;19929;-50
2021/07/23 06:24:16;;;;;;;;;;;;;;;16.23;73.13;101967.94;5051544;28;19942;-51
2021/07/23 06:26:43;;;;;;;;;;;;;;;16.32;72.08;101969.09;5052599;28;19920;-52
2021/07/23 06:29:10;;;;;;;;;;;;;;;16.44;72.12;101961.19;5054499;28;19921;-50
2021/07/23 06:31:36;;;;;;;;;;;;;;;16.58;70.91;101969.03;5050213;28;19921;-51
2021/07/23 06:34:03;;;;;;;;;;;;;;;16.66;69.52;101966.66;5051664;28;19927;-52
2021/07/23 06:36:33;;;;;;;;;;;;;;;16.76;69.39;101961.50;5054641;28;19931;-51
2021/07/23 06:39:00;;;;;;;;;;;;;;;16.87;69.22;101961.56;5053098;28;19964;-53
2021/07/23 06:41:27;;;;;;;;;;;;;;;17.01;68.61;101962.38;5053041;28;19928;-53
2021/07/23 06:43:53;;;;;;;;;;;;;;;17.16;69.04;101960.38;5053048;28;19947;-50
2021/07/23 06:46:20;;;;;;;;;;;;;;;17.26;68.49;101963.16;5053072;28;19920;-51
2021/07/23 06:48:47;;;;;;;;;;;;;;;17.42;68.31;101963.69;5054063;28;19928;-53
2021/07/23 06:51:14;;;;;;;;;;;;;;;17.47;67.38;101958.03;5054302;28;20007;-50
2021/07/23 06:53:40;;;;;;;;;;;;;;;17.66;65.20;101960.97;5052654;28;19947;-53
2021/07/23 06:56:07;;;;;;;;;;;;;;;17.81;65.59;101958.06;5050910;28;20006;-53
2021/07/23 06:58:34;;;;;;;;;;;;;;;17.79;64.83;101960.84;5053680;28;19974;-52
2021/07/23 07:01:05;;;;;;;;;;;;;;;17.93;64.75;101964.25;5052672;28;19920;-53
2021/07/23 07:03:32;;;;;;;;;;;;;;;18.00;64.22;101961.00;5052687;28;19924;-49
2021/07/23 07:05:59;;;;;;;;;;;;;;;18.11;63.16;101956.66;5049800;28;19925;-52
2021/07/23 07:08:25;;;;;;;;;;;;;;;18.28;63.94;101953.47;5035282;28;19921;-53
2021/07/23 07:10:52;;;;;;;;;;;;;;;18.43;63.35;101951.38;5052586;28;19929;-52
2021/07/23 07:13:18;;;;;;;;;;;;;;;18.59;61.75;101958.97;5053221;28;19927;-52
2021/07/23 07:15:45;;;;;;;;;;;;;;;18.54;62.22;101961.16;5050401;28;20014;-50
2021/07/23 07:18:12;;;;;;;;;;;;;;;18.67;62.74;101959.19;5049452;28;20295;-53
2021/07/23 07:20:38;;;;;;;;;;;;;;;18.86;62.77;101963.00;5052229;28;19921;-54
2021/07/23 07:23:05;;;;;;;;;;;;;;;18.91;61.71;101960.84;5050603;28;19967;-53
2021/07/23 07:25:32;;;;;;;;;;;;;;;19.01;61.61;101961.75;5052975;28;19974;-53
2021/07/23 07:28:00;;;;;;;;;;;;;;;19.16;61.61;101956.97;5050337;28;19921;-51
2021/07/23 07:30:26;;;;;;;;;;;;;;;19.34;62.34;101957.22;5051300;28;19921;-53
2021/07/23 07:32:53;;;;;;;;;;;;;;;19.41;61.81;101957.53;5053333;28;19927;-53
2021/07/23 07:35:20;;;;;;;;;;;;;;;19.40;60.03;101955.84;5053266;28;19920;-54
2021/07/23 07:37:46;;;;;;;;;;;;;;;19.47;59.21;101954.34;5052217;28;19921;-53
2021/07/23 07:40:13;;;;;;;;;;;;;;;19.62;60.47;101952.19;5053336;28;19921;-53
2021/07/23 07:42:40;;;;;;;;;;;;;;;19.75;60.70;101958.13;5053166;28;20015;-52
2021/07/23 07:45:06;;;;;;;;;;;;;;;19.85;58.50;101954.69;5050543;28;19925;-53
2021/07/23 07:47:33;;;;;;;;;;;;;;;19.98;59.25;101958.00;5050008;28;20318;-53
2021/07/23 07:50:00;;;;;;;;;;;;;;;20.08;57.67;101956.22;5051923;28;19974;-53
2021/07/23 07:52:27;;;;;;;;;;;;;;;20.31;57.26;101942.63;5053124;28;19952;-53
2021/07/23 07:54:53;;;;;;;;;;;;;;;20.38;56.34;101934.91;5050173;28;19932;-54
2021/07/23 07:57:20;;;;;;;;;;;;;;;20.64;57.62;101940.53;5050565;28;20286;-54
2021/07/23 07:59:47;;;;;;;;;;;;;;;20.79;55.71;101943.69;5052032;28;19921;-55
2021/07/23 08:02:14;;;;;;;;;;;;;;;21.02;56.32;101933.53;5047295;28;20024;-54
2021/07/23 08:04:42;;;;;;;;;;;;;;;21.18;54.03;101938.31;5051543;28;19946;-54
2021/07/23 08:07:13;;;;;;;;;;;;;;;21.38;54.54;101936.44;5052786;28;20443;-54
2021/07/23 08:09:47;;;;;;;;;;;;;;;21.56;53.31;101936.56;5052813;28;19921;-54
2021/07/23 08:12:14;;;;;;;;;;;;;;;21.70;54.04;101934.41;5051596;28;20398;-54
2021/07/23 08:14:41;;;;;;;;;;;;;;;21.76;53.09;101945.38;5052694;28;20264;-51
2021/07/23 08:17:08;;;;;;;;;;;;;;;21.87;52.14;101938.13;5048160;28;20387;-53
2021/07/23 08:19:37;;;;;;;;;;;;;;;22.04;51.82;101941.88;5048361;28;19924;-53
2021/07/23 08:22:04;;;;;;;;;;;;;;;22.15;52.23;101948.84;5050978;28;19925;-54
2021/07/23 08:24:30;;;;;;;;;;;;;;;22.14;51.65;101945.31;5052284;28;20278;-54
2021/07/23 08:26:57;;;;;;;;;;;;;;;21.92;51.68;101935.84;5049321;28;20471;-51
2021/07/23 08:29:24;;;;;;;;;;;;;;;21.93;52.14;101935.69;5049346;28;19928;-52
2021/07/23 08:31:51;;;;;;;;;;;;;;;22.11;52.17;101940.25;5053875;28;20414;-52
2021/07/23 08:34:17;;;;;;;;;;;;;;;22.07;53.55;101937.06;5056263;28;20465;-54
2021/07/23 08:36:44;;;;;;;;;;;;;;;22.36;52.46;101932.53;5056340;28;19920;-55
2021/07/23 08:39:11;;;;;;;;;;;;;;;22.50;51.78;101944.59;5056209;28;19920;-53
2021/07/23 08:41:37;;;;;;;;;;;;;;;22.64;50.64;101930.63;5042168;28;19925;-53
2021/07/23 08:44:04;;;;;;;;;;;;;;;22.66;50.82;101933.16;5053044;28;20291;-53
2021/07/23 08:46:31;;;;;;;;;;;;;;;22.61;49.91;101934.47;5055579;28;19935;-53
2021/07/23 08:48:58;;;;;;;;;;;;;;;22.82;50.46;101925.25;5055755;28;19921;-51
2021/07/23 08:51:25;;;;;;;;;;;;;;;22.87;49.94;101931.00;5054701;28;19925;-53
2021/07/23 08:53:52;;;;;;;;;;;;;;;23.03;49.91;101924.06;5057275;28;19921;-54
2021/07/23 08:56:22;;;;;;;;;;;;;;;23.09;49.15;101926.97;5050493;28;19971;-52
2021/07/23 08:58:48;;;;;;;;;;;;;;;23.47;47.56;101924.06;5054334;28;20387;-54
2021/07/23 09:01:15;;;;;;;;;;;;;;;23.18;49.35;101922.56;5055834;28;20322;-51
2021/07/23 09:03:42;;;;;;;;;;;;;;;23.55;50.41;101920.59;5055200;28;20015;-54
2021/07/23 09:06:17;;;;;;;;;;;;;;;23.83;49.52;101926.59;5055411;28;19921;-55
2021/07/23 09:08:48;;;;;;;;;;;;;;;23.76;48.18;101930.94;5054884;28;20019;-54
2021/07/23 09:11:15;;;;;;;;;;;;;;;24.21;48.48;101920.88;5055626;28;19921;-53
2021/07/23 09:13:41;;;;;;;;;;;;;;;24.21;47.16;101918.19;5055293;28;19925;-54
2021/07/23 09:16:24;;;;;;;;;;;;;;;24.34;47.89;101923.06;5055423;28;20298;-55
2021/07/23 09:19:04;;;;;;;;;;;;;;;24.59;47.14;101922.09;5054310;28;19932;-53
2021/07/23 09:21:30;;;;;;;;;;;;;;;24.59;45.61;101932.03;5048349;28;20372;-54
2021/07/23 09:23:57;;;;;;;;;;;;;;;24.59;45.80;101921.28;5053241;28;19921;-53
2021/07/23 09:26:26;;;;;;;;;;;;;;;24.58;46.04;101920.44;5055022;28;19947;-54
2021/07/23 09:28:52;;;;;;;;;;;;;;;24.59;46.40;101914.03;5054869;28;19925;-54
2021/07/23 09:31:23;;;;;;;;;;;;;;;24.48;45.72;101912.50;5055302;28;20422;-55
2021/07/23 09:33:53;;;;;;;;;;;;;;;24.34;46.06;101915.00;5055145;28;20532;-54
2021/07/23 09:36:20;;;;;;;;;;;;;;;24.15;46.05;101914.31;5054453;28;19921;-54
2021/07/23 09:38:47;;;;;;;;;;;;;;;24.23;46.35;101908.97;5053589;28;19947;-54
2021/07/23 09:41:22;;;;;;;;;;;;;;;24.67;46.29;101907.88;5054326;28;19925;-52
2021/07/23 09:43:58;;;;;;;;;;;;;;;24.99;44.58;101895.41;5051962;28;19990;-55
2021/07/23 09:46:26;;;;;;;;;;;;;;;25.11;45.01;101899.44;5052909;28;19929;-54
2021/07/23 09:49:21;;;;;;;;;;;;;;;25.10;43.90;101888.81;5054612;28;19925;-56
2021/07/23 09:51:48;;;;;;;;;;;;;;;25.24;45.32;101882.75;5052089;28;19924;-54
2021/07/23 09:54:15;;;;;;;;;;;;;;;25.43;43.75;101883.41;5052427;28;19927;-55
2021/07/23 09:56:43;;;;;;;;;;;;;;;25.70;44.34;101884.81;5053129;28;20280;-55
2021/07/23 09:59:16;;;;;;;;;;;;;;;25.68;43.62;101880.63;5054552;28;20264;-54
2021/07/23 10:01:43;;;;;;;;;;;;;;;25.94;42.37;101883.84;5050405;28;19928;-54
2021/07/23 10:04:33;;;;;;;;;;;;;;;25.28;43.74;101869.81;5051147;28;19925;-51
2021/07/23 10:07:03;;;;;;;;;;;;;;;25.58;44.62;101875.47;5048908;28;19928;-52
2021/07/23 10:09:36;;;;;;;;;;;;;;;25.48;43.21;101876.50;5052686;28;19952;-52
2021/07/23 10:12:04;;;;;;;;;;;;;;;25.67;44.07;101873.56;5055170;28;19925;-52
2021/07/23 10:14:31;;;;;;;;;;;;;;;26.24;44.39;101880.50;5054235;28;19921;-51
2021/07/23 10:17:10;;;;;;;;;;;;;;;26.29;43.42;101875.41;5046914;28;19974;-52
2021/07/23 10:19:45;;;;;;;;;;;;;;;25.73;43.47;101871.00;5050619;28;19924;-53
2021/07/23 10:22:12;;;;;;;;;;;;;;;25.78;42.76;101863.25;5062564;28;19921;-50
2021/07/23 10:24:42;;;;;;;;;;;;;;;25.51;44.26;101867.22;5050638;28;19921;-54
2021/07/23 10:27:10;;;;;;;;;;;;;;;25.57;45.06;101868.38;5052933;28;19924;-53
2021/07/23 10:29:46;;;;;;;;;;;;;;;25.69;43.79;101858.03;5037978;28;19928;-55
2021/07/23 10:32:32;;;;;;;;;;;;;;;25.66;42.61;101856.56;5046702;28;20458;-52
2021/07/23 10:35:00;;;;;;;;;;;;;;;25.88;44.25;101860.31;5053700;28;20434;-52
2021/07/23 10:37:29;;;;;;;;;;;;;;;25.92;43.03;101858.09;5054026;28;19927;-53
2021/07/23 10:40:08;;;;;;;;;;;;;;;25.98;42.31;101858.22;5054207;28;19928;-53
2021/07/23 10:42:36;;;;;;;;;;;;;;;25.96;41.31;101851.34;5054332;28;19920;-53
2021/07/23 10:45:03;;;;;;;;;;;;;;;25.60;43.42;101843.78;5069441;28;19928;-55
2021/07/23 10:47:48;;;;;;;;;;;;;;;25.74;42.22;101847.59;5050016;28;20368;-56
2021/07/23 10:50:24;;;;;;;;;;;;;;;26.27;43.03;101837.88;5050859;28;19920;-54
2021/07/23 10:52:54;;;;;;;;;;;;;;;25.92;42.31;101837.38;5054149;28;20402;-52
2021/07/23 10:55:21;;;;;;;;;;;;;;;26.22;42.20;101840.25;5053392;28;19970;-56
2021/07/23 10:58:09;;;;;;;;;;;;;;;26.13;41.25;101828.69;5069410;28;19928;-53
2021/07/23 11:00:43;;;;;;;;;;;;;;;26.37;41.01;101840.31;5052673;28;19925;-55
2021/07/23 11:03:10;;;;;;;;;;;;;;;26.63;41.24;101829.13;5065086;28;20581;-56
2021/07/23 11:05:37;;;;;;;;;;;;;;;26.82;42.75;101825.09;5052457;28;20359;-55
2021/07/23 11:08:03;;;;;;;;;;;;;;;26.58;41.07;101826.13;5053795;28;19925;-55
2021/07/23 11:10:30;;;;;;;;;;;;;;;26.49;40.57;101819.97;5052578;28;19971;-55
2021/07/23 11:12:56;;;;;;;;;;;;;;;26.22;41.23;101828.63;5053995;28;19920;-54
2021/07/23 11:15:23;;;;;;;;;;;;;;;26.05;40.80;101830.59;5053757;28;20011;-52
2021/07/23 11:17:54;;;;;;;;;;;;;;;26.24;40.55;101823.91;5053606;28;19920;-54
2021/07/23 11:20:24;;;;;;;;;;;;;;;26.10;41.40;101822.81;5053580;28;19999;-55
2021/07/23 11:22:52;;;;;;;;;;;;;;;26.66;40.61;101809.03;5053704;28;19924;-54
2021/07/23 11:25:19;;;;;;;;;;;;;;;26.72;41.38;101805.63;5053488;28;19947;-55
2021/07/23 11:27:46;;;;;;;;;;;;;;;26.37;41.99;101805.25;5053628;28;19920;-54
2021/07/23 11:30:13;;;;;;;;;;;;;;;26.18;42.99;101808.44;5051207;28;19936;-55
2021/07/23 11:32:46;;;;;;;;;;;;;;;26.45;41.83;101799.78;5048590;28;20379;-55
2021/07/23 11:35:13;;;;;;;;;;;;;;;25.88;42.28;101797.50;5052279;28;20253;-52
2021/07/23 11:37:40;;;;;;;;;;;;;;;26.22;42.68;101804.34;5068521;28;19994;-55
2021/07/23 11:40:11;;;;;;;;;;;;;;;26.04;42.82;101810.91;5053007;28;19956;-51
2021/07/23 11:42:39;;;;;;;;;;;;;;;25.74;42.90;101805.34;5053190;28;19925;-57
2021/07/23 11:45:06;;;;;;;;;;;;;;;25.79;43.12;101800.25;5052169;28;19924;-57
2021/07/23 11:47:34;;;;;;;;;;;;;;;25.78;43.40;101800.41;5048073;28;19924;-57
2021/07/23 11:50:02;;;;;;;;;;;;;;;25.70;43.27;101790.56;5050464;28;19928;-56
2021/07/23 11:52:28;;;;;;;;;;;;;;;25.58;43.48;101797.38;5053107;28;19920;-54
2021/07/23 11:54:58;;;;;;;;;;;;;;;25.53;43.14;101788.97;5052922;28;19921;-55
2021/07/23 11:57:25;;;;;;;;;;;;;;;25.62;42.94;101786.03;5051824;28;19920;-55
2021/07/23 11:59:52;;;;;;;;;;;;;;;25.40;43.04;101779.59;5050508;28;19928;-52
2021/07/23 12:02:23;;;;;;;;;;;;;;;25.54;42.86;101769.94;5051071;28;20315;-54
2021/07/23 12:05:00;;;;;;;;;;;;;;;25.24;43.20;101774.28;5065823;28;19924;-55
2021/07/23 12:07:27;;;;;;;;;;;;;;;25.19;42.80;101765.88;5050246;28;19921;-54
2021/07/23 12:09:54;;;;;;;;;;;;;;;25.35;43.78;101763.13;5050547;28;19968;-53
2021/07/23 12:12:20;;;;;;;;;;;;;;;25.62;43.18;101756.44;5048140;28;20387;-56
2021/07/23 12:14:47;;;;;;;;;;;;;;;25.47;43.72;101750.13;5051750;28;19929;-51
2021/07/23 12:17:14;;;;;;;;;;;;;;;25.69;42.98;101753.88;5052486;28;19928;-55
2021/07/23 12:19:42;;;;;;;;;;;;;;;25.37;42.57;101755.72;5067769;28;19920;-55
2021/07/23 12:22:13;;;;;;;;;;;;;;;25.48;42.24;101752.63;5067004;28;20375;-54
2021/07/23 12:24:40;;;;;;;;;;;;;;;25.55;42.93;101738.44;5064931;28;19931;-56
2021/07/23 12:27:16;;;;;;;;;;;;;;;25.21;44.02;101745.00;5050647;28;20237;-51
2021/07/23 12:29:44;;;;;;;;;;;;;;;25.45;44.99;101733.28;5052023;28;20027;-54
2021/07/23 12:32:11;;;;;;;;;;;;;;;25.63;44.25;101730.31;5051005;28;19936;-54
2021/07/23 12:34:38;;;;;;;;;;;;;;;26.05;41.76;101717.44;5051532;28;19920;-54
2021/07/23 12:37:14;;;;;;;;;;;;;;;26.13;41.98;101715.47;5065201;28;20455;-54
2021/07/23 12:39:51;;;;;;;;;;;;;;;26.35;41.95;101706.72;5050703;28;19960;-53